createdAt,value
2018-08-06T00:00:40.515Z,101215.28
2018-08-06T00:03:08.706Z,101209.20
2018-08-06T00:05:36.733Z,101209.55
2018-08-06T00:08:05.521Z,101206.64
2018-08-06T00:10:33.530Z,101205.58
2018-08-06T00:13:01.523Z,101208.52
2018-08-06T00:15:29.520Z,101202.79
2018-08-06T00:17:57.524Z,101211.08
2018-08-06T00:20:25.554Z,101206.57
2018-08-06T00:22:53.568Z,101199.89
2018-08-06T00:25:21.640Z,101201.61
2018-08-06T00:27:49.666Z,101197.74
2018-08-06T00:30:18.782Z,101194.95
2018-08-06T00:32:47.522Z,101197.66
2018-08-06T00:35:15.886Z,101199.25
2018-08-06T00:37:43.900Z,101197.22
2018-08-06T00:40:13.476Z,101196.58
2018-08-06T00:42:42.316Z,101195.30
2018-08-06T00:45:11.913Z,101190.22
2018-08-06T00:47:39.924Z,101191.43
2018-08-06T00:50:08.432Z,101186.69
2018-08-06T00:52:36.712Z,101184.89
2018-08-06T00:55:05.081Z,101184.05
2018-08-06T00:57:33.111Z,101183.94
2018-08-06T01:00:01.157Z,101178.59
2018-08-06T01:02:29.197Z,101181.88
2018-08-06T01:04:57.199Z,101179.92
2018-08-06T01:07:25.273Z,101182.73
2018-08-06T01:09:53.601Z,101178.98
2018-08-06T01:12:21.593Z,101180.55
2018-08-06T01:14:49.672Z,101178.63
2018-08-06T01:17:17.698Z,101177.41
2018-08-06T01:19:45.680Z,101174.28
2018-08-06T01:22:13.661Z,101180.34
2018-08-06T01:24:41.696Z,101180.60
2018-08-06T01:27:09.738Z,101185.45
2018-08-06T01:29:37.737Z,101185.80
2018-08-06T01:32:05.724Z,101182.05
2018-08-06T01:34:33.744Z,101184.23
2018-08-06T01:37:01.764Z,101181.32
2018-08-06T01:39:29.784Z,101181.33
2018-08-06T01:41:57.938Z,101177.11
2018-08-06T01:44:25.928Z,101182.65
2018-08-06T01:46:53.916Z,101175.14
2018-08-06T01:49:21.917Z,101173.66
2018-08-06T01:51:49.997Z,101175.98
2018-08-06T01:54:17.993Z,101179.14
2018-08-06T01:56:46.013Z,101173.67
2018-08-06T01:59:14.005Z,101172.09
2018-08-06T02:01:42.296Z,101162.89
2018-08-06T02:04:10.358Z,101158.39
2018-08-06T02:06:38.356Z,101157.06
2018-08-06T02:09:07.376Z,101154.05
2018-08-06T02:11:35.434Z,101155.14
2018-08-06T02:14:03.674Z,101152.23
2018-08-06T02:16:31.696Z,101149.32
2018-08-06T02:18:59.699Z,101146.41
2018-08-06T02:21:27.684Z,101140.70
2018-08-06T02:23:55.709Z,101142.53
2018-08-06T02:26:23.734Z,101138.63
2018-08-06T02:28:51.743Z,101139.02
2018-08-06T02:31:19.748Z,101131.23
2018-08-06T02:33:47.839Z,101129.31
2018-08-06T02:36:15.876Z,101125.41
2018-08-06T02:38:44.077Z,101129.66
2018-08-06T02:41:12.097Z,101127.97
2018-08-06T02:43:40.121Z,101129.66
2018-08-06T02:46:08.103Z,101125.55
2018-08-06T02:48:36.102Z,101120.83
2018-08-06T02:51:04.084Z,101120.83
2018-08-06T02:53:32.160Z,101121.66
2018-08-06T02:56:00.169Z,101123.00
2018-08-06T02:58:28.157Z,101122.51
2018-08-06T03:00:56.157Z,101127.00
2018-08-06T03:03:24.184Z,101132.22
2018-08-06T03:05:52.177Z,101116.33
2018-08-06T03:08:20.196Z,101124.82
2018-08-06T03:10:48.233Z,101124.69
2018-08-06T03:13:16.185Z,101124.34
2018-08-06T03:15:44.233Z,101122.77
2018-08-06T03:18:12.200Z,101121.53
2018-08-06T03:20:40.221Z,101121.78
2018-08-06T03:23:08.217Z,101117.19
2018-08-06T03:25:36.205Z,101126.14
2018-08-06T03:28:04.441Z,101120.95
2018-08-06T03:30:32.437Z,101119.23
2018-08-06T03:33:00.432Z,101116.70
2018-08-06T03:35:28.469Z,101119.97
2018-08-06T03:37:56.493Z,101114.14
2018-08-06T03:40:24.496Z,101115.34
2018-08-06T03:42:52.664Z,101115.94
2018-08-06T03:45:20.684Z,101122.20
2018-08-06T03:47:48.708Z,101121.13
2018-08-06T03:50:16.712Z,101120.77
2018-08-06T03:52:44.742Z,101115.58
2018-08-06T03:55:12.939Z,101117.76
2018-08-06T03:57:41.400Z,101121.76
2018-08-06T04:00:11.530Z,101119.93
2018-08-06T04:02:39.815Z,101127.19
2018-08-06T04:05:09.128Z,101121.86
2018-08-06T04:07:37.162Z,101122.25
2018-08-06T04:10:05.868Z,101122.36
2018-08-06T04:12:33.868Z,101121.66
2018-08-06T04:15:01.883Z,101123.58
2018-08-06T04:17:29.892Z,101125.79
2018-08-06T04:19:57.993Z,101130.38
2018-08-06T04:22:26.088Z,101121.55
2018-08-06T04:24:54.124Z,101122.03
2018-08-06T04:27:22.096Z,101120.80
2018-08-06T04:29:50.119Z,101121.78
2018-08-06T04:32:18.100Z,101124.70
2018-08-06T04:34:46.134Z,101124.56
2018-08-06T04:37:14.117Z,101126.98
2018-08-06T04:39:42.134Z,101125.51
2018-08-06T04:42:10.145Z,101120.52
2018-08-06T04:44:38.175Z,101116.62
2018-08-06T04:47:06.197Z,101119.69
2018-08-06T04:49:34.189Z,101120.95
2018-08-06T04:52:02.257Z,101116.09
2018-08-06T04:54:30.233Z,101114.89
2018-08-06T04:56:58.232Z,101117.77
2018-08-06T04:59:26.272Z,101120.08
2018-08-06T05:01:54.234Z,101121.19
2018-08-06T05:04:22.272Z,101124.22
2018-08-06T05:06:50.300Z,101117.27
2018-08-06T05:09:22.324Z,101119.96
2018-08-06T05:11:50.708Z,101121.53
2018-08-06T05:14:18.833Z,101117.00
2018-08-06T05:16:46.836Z,101115.88
2018-08-06T05:19:14.846Z,101114.63
2018-08-06T05:21:42.836Z,101107.95
2018-08-06T05:24:10.864Z,101120.03
2018-08-06T05:26:38.911Z,101118.91
2018-08-06T05:29:06.953Z,101121.87
2018-08-06T05:31:34.972Z,101124.20
2018-08-06T05:34:02.989Z,101132.31
2018-08-06T05:36:31.008Z,101130.08
2018-08-06T05:38:59.048Z,101133.64
2018-08-06T05:41:27.424Z,101134.02
2018-08-06T05:43:56.217Z,101132.78
2018-08-06T05:46:24.418Z,101133.78
2018-08-06T05:48:52.580Z,101128.41
2018-08-06T05:51:20.646Z,101138.27
2018-08-06T05:53:48.617Z,101141.93
2018-08-06T05:56:16.680Z,101139.63
2018-08-06T05:58:44.776Z,101143.41
2018-08-06T06:01:12.790Z,101144.38
2018-08-06T06:03:40.780Z,101145.52
2018-08-06T06:06:09.256Z,101144.98
2018-08-06T06:08:38.142Z,101147.97
2018-08-06T06:11:06.536Z,101153.12
2018-08-06T06:13:34.943Z,101155.16
2018-08-06T06:16:02.980Z,101159.01
2018-08-06T06:18:31.012Z,101165.92
2018-08-06T06:20:59.042Z,101169.84
2018-08-06T06:23:27.075Z,101167.36
2018-08-06T06:25:55.166Z,101165.59
2018-08-06T06:28:23.180Z,101167.47
2018-08-06T06:30:51.305Z,101160.64
2018-08-06T06:33:19.349Z,101159.33
2018-08-06T06:35:47.453Z,101158.48
2018-08-06T06:38:15.473Z,101161.24
2018-08-06T06:40:43.515Z,101152.09
2018-08-06T06:43:11.536Z,101155.61
2018-08-06T06:45:39.656Z,101152.10
2018-08-06T06:48:07.908Z,101149.97
2018-08-06T06:50:35.949Z,101145.48
2018-08-06T06:53:04.196Z,101152.39
2018-08-06T06:55:32.216Z,101156.30
2018-08-06T06:58:00.256Z,101156.27
2018-08-06T07:00:28.342Z,101165.67
2018-08-06T07:02:56.385Z,101159.58
2018-08-06T07:05:24.395Z,101161.83
2018-08-06T07:07:52.469Z,101159.34
2018-08-06T07:10:20.476Z,101155.15
2018-08-06T07:12:48.493Z,101168.81
2018-08-06T07:15:17.304Z,101165.61
2018-08-06T07:17:47.032Z,101161.44
2018-08-06T07:20:16.326Z,101162.83
2018-08-06T07:22:44.313Z,101151.48
2018-08-06T07:25:12.726Z,101146.49
2018-08-06T07:27:41.825Z,101149.66
2018-08-06T07:30:12.412Z,101143.55
2018-08-06T07:32:41.294Z,101145.37
2018-08-06T07:35:10.377Z,101139.98
2018-08-06T07:37:38.667Z,101128.59
2018-08-06T07:40:08.598Z,101125.42
2018-08-06T07:42:36.589Z,101134.30
2018-08-06T07:45:06.737Z,101131.80
2018-08-06T07:47:34.748Z,101130.27
2018-08-06T07:50:02.845Z,101127.91
2018-08-06T07:52:30.891Z,101132.73
2018-08-06T07:54:58.874Z,101131.19
2018-08-06T07:57:26.936Z,101122.12
2018-08-06T07:59:54.937Z,101114.45
2018-08-06T08:02:29.674Z,101119.36
2018-08-06T08:04:57.715Z,101118.87
2018-08-06T08:07:25.797Z,101118.95
2018-08-06T08:09:53.810Z,101114.56
2018-08-06T08:12:21.930Z,101115.53
2018-08-06T08:14:49.989Z,101111.94
2018-08-06T08:17:18.117Z,101108.91
2018-08-06T08:19:46.273Z,101107.57
2018-08-06T08:22:14.345Z,101100.44
2018-08-06T08:24:43.192Z,101106.87
2018-08-06T08:27:11.454Z,101098.05
2018-08-06T08:29:39.612Z,101097.31
2018-08-06T08:32:14.324Z,101101.67
2018-08-06T08:34:42.510Z,101097.47
2018-08-06T08:37:10.676Z,101086.24
2018-08-06T08:39:38.860Z,101091.46
2018-08-06T08:42:06.873Z,101087.28
2018-08-06T08:44:35.220Z,101082.11
2018-08-06T08:47:03.204Z,101081.99
2018-08-06T08:49:31.288Z,101076.66
2018-08-06T08:51:59.333Z,101075.02
2018-08-06T08:54:27.372Z,101063.23
2018-08-06T08:56:55.409Z,101064.96
2018-08-06T08:59:23.412Z,101066.06
2018-08-06T09:01:51.556Z,101061.48
2018-08-06T09:04:19.756Z,101059.17
2018-08-06T09:06:47.821Z,101063.66
2018-08-06T09:09:15.878Z,101057.76
2018-08-06T09:11:43.933Z,101062.80
2018-08-06T09:14:12.036Z,101055.61
2018-08-06T09:16:40.000Z,101056.34
2018-08-06T09:19:07.996Z,101046.66
2018-08-06T09:21:36.009Z,101035.47
2018-08-06T09:24:04.208Z,101039.62
2018-08-06T09:26:32.228Z,101031.42
2018-08-06T09:29:00.544Z,101036.99
2018-08-06T09:31:28.604Z,101037.31
2018-08-06T09:33:56.642Z,101029.32
2018-08-06T09:36:24.661Z,101023.77
2018-08-06T09:38:52.784Z,101031.69
2018-08-06T09:41:20.891Z,101026.20
2018-08-06T09:43:49.108Z,101020.44
2018-08-06T09:46:17.170Z,101016.36
2018-08-06T09:48:45.248Z,101011.95
2018-08-06T09:51:13.284Z,100997.84
2018-08-06T09:53:41.456Z,101004.00
2018-08-06T09:56:09.537Z,101001.73
2018-08-06T09:58:37.651Z,100989.52
2018-08-06T10:01:11.312Z,100994.36
2018-08-06T10:03:39.398Z,100987.00
2018-08-06T10:06:07.567Z,100990.05
2018-08-06T10:08:35.572Z,100979.63
2018-08-06T10:11:03.652Z,100982.08
2018-08-06T10:13:31.712Z,100990.00
2018-08-06T10:15:59.793Z,100975.73
2018-08-06T10:18:27.947Z,100979.91
2018-08-06T10:20:56.088Z,100969.91
2018-08-06T10:23:24.391Z,100971.52
2018-08-06T10:25:54.284Z,100964.33
2018-08-06T10:28:22.648Z,100958.36
2018-08-06T10:30:50.661Z,100957.25
2018-08-06T10:33:18.688Z,100946.59
2018-08-06T10:35:46.704Z,100945.78
2018-08-06T10:38:14.716Z,100938.77
2018-08-06T10:40:42.739Z,100938.22
2018-08-06T10:43:10.788Z,100934.51
2018-08-06T10:45:38.829Z,100929.97
2018-08-06T10:48:06.808Z,100933.05
2018-08-06T10:50:34.873Z,100914.87
2018-08-06T10:53:02.889Z,100916.05
2018-08-06T10:55:30.966Z,100920.31
2018-08-06T10:57:59.037Z,100908.33
2018-08-06T11:00:27.021Z,100898.73
2018-08-06T11:02:55.082Z,100906.96
2018-08-06T11:05:23.044Z,100897.75
2018-08-06T11:07:51.045Z,100898.58
2018-08-06T11:10:20.336Z,100891.58
2018-08-06T11:12:48.376Z,100888.42
2018-08-06T11:15:19.057Z,100884.89
2018-08-06T11:17:47.109Z,100876.05
2018-08-06T11:20:16.025Z,100874.04
2018-08-06T11:22:44.104Z,100876.73
2018-08-06T11:25:16.646Z,100881.75
2018-08-06T11:27:44.656Z,100867.73
2018-08-06T11:30:14.616Z,100868.70
2018-08-06T11:32:42.670Z,100852.41
2018-08-06T11:35:11.396Z,100852.48
2018-08-06T11:37:39.548Z,100847.47
2018-08-06T11:40:09.076Z,100846.19
2018-08-06T11:42:37.616Z,100846.44
2018-08-06T11:45:06.026Z,100839.06
2018-08-06T11:47:34.130Z,100841.50
2018-08-06T11:50:02.153Z,100835.81
2018-08-06T11:52:30.150Z,100838.90
2018-08-06T11:54:58.140Z,100836.78
2018-08-06T11:57:26.148Z,100831.58
2018-08-06T11:59:54.188Z,100828.41
2018-08-06T12:02:22.581Z,100826.86
2018-08-06T12:04:50.746Z,100825.17
2018-08-06T12:07:18.769Z,100814.99
2018-08-06T12:09:46.778Z,100808.42
2018-08-06T12:12:14.779Z,100803.64
2018-08-06T12:14:43.084Z,100796.70
2018-08-06T12:17:11.098Z,100798.78
2018-08-06T12:19:39.093Z,100806.70
2018-08-06T12:22:07.202Z,100799.09
2018-08-06T12:24:35.200Z,100787.73
2018-08-06T12:27:03.184Z,100791.90
2018-08-06T12:29:31.184Z,100789.17
2018-08-06T12:31:59.512Z,100790.36
2018-08-06T12:34:27.784Z,100785.39
2018-08-06T12:36:55.797Z,100784.78
2018-08-06T12:39:23.898Z,100776.30
2018-08-06T12:41:51.980Z,100771.94
2018-08-06T12:44:19.988Z,100776.80
2018-08-06T12:46:48.011Z,100767.23
2018-08-06T12:49:16.021Z,100770.58
2018-08-06T12:51:44.072Z,100772.50
2018-08-06T12:54:12.083Z,100764.45
2018-08-06T12:56:40.155Z,100761.28
2018-08-06T12:59:08.165Z,100762.37
2018-08-06T13:01:36.215Z,100756.58
2018-08-06T13:04:04.230Z,100755.78
2018-08-06T13:06:32.228Z,100754.83
2018-08-06T13:09:00.220Z,100749.94
2018-08-06T13:11:28.279Z,100744.46
2018-08-06T13:13:56.221Z,100739.27
2018-08-06T13:16:24.224Z,100734.73
2018-08-06T13:18:52.361Z,100730.44
2018-08-06T13:21:20.396Z,100732.67
2018-08-06T13:23:48.457Z,100741.09
2018-08-06T13:26:16.463Z,100733.15
2018-08-06T13:28:45.476Z,100733.22
2018-08-06T13:31:13.621Z,100713.07
2018-08-06T13:33:41.661Z,100730.23
2018-08-06T13:36:09.732Z,100716.33
2018-08-06T13:38:37.728Z,100717.73
2018-08-06T13:41:05.812Z,100712.34
2018-08-06T13:43:33.816Z,100709.98
2018-08-06T13:46:01.816Z,100696.70
2018-08-06T13:48:29.825Z,100702.14
2018-08-06T13:50:57.925Z,100701.48
2018-08-06T13:53:25.955Z,100701.71
2018-08-06T13:55:53.940Z,100697.25
2018-08-06T13:58:22.023Z,100695.19
2018-08-06T14:00:50.038Z,100696.62
2018-08-06T14:03:18.020Z,100689.34
2018-08-06T14:05:45.979Z,100680.80
2018-08-06T14:08:14.056Z,100680.44
2018-08-06T14:10:42.072Z,100680.23
2018-08-06T14:13:10.208Z,100670.10
2018-08-06T14:15:38.197Z,100684.53
2018-08-06T14:18:06.197Z,100673.52
2018-08-06T14:20:34.187Z,100671.17
2018-08-06T14:23:02.177Z,100665.23
2018-08-06T14:25:30.260Z,100659.95
2018-08-06T14:27:58.274Z,100655.16
2018-08-06T14:30:26.278Z,100657.44
2018-08-06T14:32:54.296Z,100655.80
2018-08-06T14:35:22.388Z,100656.90
2018-08-06T14:37:50.854Z,100653.89
2018-08-06T14:40:19.562Z,100650.55
2018-08-06T14:42:47.920Z,100653.17
2018-08-06T14:45:15.968Z,100644.41
2018-08-06T14:47:43.982Z,100643.39
2018-08-06T14:50:13.356Z,100642.55
2018-08-06T14:52:41.400Z,100637.33
2018-08-06T14:55:09.469Z,100634.74
2018-08-06T14:57:38.758Z,100637.66
2018-08-06T15:00:22.744Z,100628.80
2018-08-06T15:02:51.746Z,100632.77
2018-08-06T15:05:19.809Z,100631.34
2018-08-06T15:07:48.065Z,100628.67
2018-08-06T15:10:16.995Z,100626.64
2018-08-06T15:12:45.701Z,100617.14
2018-08-06T15:15:18.477Z,100619.31
2018-08-06T15:17:47.047Z,100611.81
2018-08-06T15:20:17.389Z,100618.10
2018-08-06T15:22:47.108Z,100605.52
2018-08-06T15:25:19.023Z,100607.48
2018-08-06T15:27:50.740Z,100604.08
2018-08-06T15:30:18.826Z,100603.09
2018-08-06T15:32:46.890Z,100595.62
2018-08-06T15:35:15.078Z,100585.57
2018-08-06T15:37:43.864Z,100592.27
2018-08-06T15:40:15.080Z,100596.08
2018-08-06T15:42:43.060Z,100595.96
2018-08-06T15:45:12.012Z,100586.50
2018-08-06T15:47:40.402Z,100587.48
2018-08-06T15:50:10.906Z,100584.52
2018-08-06T15:52:39.516Z,100587.33
2018-08-06T15:55:08.695Z,100585.84
2018-08-06T15:57:36.720Z,100587.54
2018-08-06T16:00:06.392Z,100576.21
2018-08-06T16:02:34.728Z,100571.94
2018-08-06T16:05:02.765Z,100566.94
2018-08-06T16:07:30.764Z,100569.78
2018-08-06T16:09:59.157Z,100574.70
2018-08-06T16:12:27.312Z,100568.57
2018-08-06T16:14:57.257Z,100561.69
2018-08-06T16:17:25.340Z,100560.08
2018-08-06T16:19:53.663Z,100555.50
2018-08-06T16:22:21.719Z,100552.00
2018-08-06T16:24:50.609Z,100553.70
2018-08-06T16:27:18.864Z,100548.19
2018-08-06T16:29:47.113Z,100548.30
2018-08-06T16:32:15.601Z,100550.23
2018-08-06T16:34:43.641Z,100545.41
2018-08-06T16:37:11.605Z,100543.70
2018-08-06T16:39:40.156Z,100542.63
2018-08-06T16:42:08.305Z,100532.04
2018-08-06T16:44:37.140Z,100535.50
2018-08-06T16:47:05.170Z,100532.39
2018-08-06T16:49:33.347Z,100528.80
2018-08-06T16:52:01.446Z,100530.91
2018-08-06T16:54:29.464Z,100520.59
2018-08-06T16:56:57.456Z,100516.44
2018-08-06T16:59:26.056Z,100515.75
2018-08-06T17:01:54.430Z,100512.42
2018-08-06T17:04:22.453Z,100514.30
2018-08-06T17:06:50.564Z,100513.08
2018-08-06T17:09:18.557Z,100510.23
2018-08-06T17:11:46.598Z,100508.91
2018-08-06T17:14:14.981Z,100507.94
2018-08-06T17:16:43.014Z,100510.36
2018-08-06T17:19:11.058Z,100508.53
2018-08-06T17:21:39.127Z,100505.06
2018-08-06T17:24:07.236Z,100495.98
2018-08-06T17:26:35.239Z,100499.91
2018-08-06T17:29:03.351Z,100497.14
2018-08-06T17:31:31.421Z,100499.14
2018-08-06T17:33:59.492Z,100501.05
2018-08-06T17:36:27.596Z,100496.67
2018-08-06T17:38:55.761Z,100495.70
2018-08-06T17:41:23.792Z,100492.20
2018-08-06T17:43:51.887Z,100493.99
2018-08-06T17:46:19.910Z,100489.81
2018-08-06T17:48:47.944Z,100489.00
2018-08-06T17:51:15.994Z,100486.14
2018-08-06T17:53:44.038Z,100488.85
2018-08-06T17:56:12.100Z,100489.28
2018-08-06T17:58:40.217Z,100488.20
2018-08-06T18:01:08.228Z,100484.09
2018-08-06T18:03:36.247Z,100480.37
2018-08-06T18:06:04.316Z,100483.20
2018-08-06T18:08:32.390Z,100485.98
2018-08-06T18:11:00.410Z,100475.95
2018-08-06T18:13:28.404Z,100479.65
2018-08-06T18:16:20.178Z,100475.27
2018-08-06T18:18:48.201Z,100476.56
2018-08-06T18:21:16.305Z,100477.63
2018-08-06T18:23:44.640Z,100482.10
2018-08-06T18:26:12.912Z,100481.22
2018-08-06T18:28:41.946Z,100485.47
2018-08-06T18:31:10.031Z,100483.23
2018-08-06T18:33:38.054Z,100485.62
2018-08-06T18:36:06.128Z,100483.77
2018-08-06T18:38:34.199Z,100485.31
2018-08-06T18:41:02.456Z,100485.16
2018-08-06T18:43:30.524Z,100487.63
2018-08-06T18:45:58.675Z,100480.05
2018-08-06T18:48:26.707Z,100488.78
2018-08-06T18:50:54.764Z,100489.53
2018-08-06T18:53:22.832Z,100491.48
2018-08-06T18:55:50.852Z,100483.09
2018-08-06T18:58:18.944Z,100492.67
2018-08-06T19:00:47.025Z,100485.35
2018-08-06T19:03:15.021Z,100485.86
2018-08-06T19:05:43.277Z,100487.18
2018-08-06T19:08:11.377Z,100489.13
2018-08-06T19:10:39.465Z,100486.88
2018-08-06T19:13:12.833Z,100485.66
2018-08-06T19:15:40.963Z,100484.59
2018-08-06T19:18:14.451Z,100479.64
2018-08-06T19:20:42.523Z,100481.56
2018-08-06T19:23:10.601Z,100479.33
2018-08-06T19:25:38.633Z,100477.27
2018-08-06T19:28:06.653Z,100488.97
2018-08-06T19:30:40.165Z,100478.00
2018-08-06T19:33:08.249Z,100480.27
2018-08-06T19:35:36.560Z,100482.52
2018-08-06T19:38:04.609Z,100485.06
2018-08-06T19:40:32.636Z,100478.92
2018-08-06T19:43:06.108Z,100482.80
2018-08-06T19:45:34.441Z,100483.63
2018-08-06T19:48:02.438Z,100479.92
2018-08-06T19:50:35.912Z,100479.70
2018-08-06T19:53:04.076Z,100478.41
2018-08-06T19:55:37.674Z,100480.73
2018-08-06T19:58:06.145Z,100480.15
2018-08-06T20:00:34.157Z,100484.37
2018-08-06T20:03:02.259Z,100484.59
2018-08-06T20:05:30.290Z,100484.59
2018-08-06T20:07:58.297Z,100479.30
2018-08-06T20:10:26.384Z,100480.67
2018-08-06T20:12:54.417Z,100477.86
2018-08-06T20:15:22.494Z,100472.95
2018-08-06T20:17:50.737Z,100477.25
2018-08-06T20:20:18.730Z,100474.40
2018-08-06T20:22:46.846Z,100471.04
2018-08-06T20:25:17.055Z,100475.22
2018-08-06T20:27:45.748Z,100476.91
2018-08-06T20:30:14.752Z,100470.84
2018-08-06T20:32:42.759Z,100472.69
2018-08-06T20:35:13.000Z,100471.75
2018-08-06T20:37:41.363Z,100472.28
2018-08-06T20:40:10.092Z,100470.31
2018-08-06T20:42:40.353Z,100466.03
2018-08-06T20:45:10.980Z,100469.53
2018-08-06T20:47:39.722Z,100468.33
2018-08-06T20:50:09.332Z,100464.45
2018-08-06T20:52:37.435Z,100468.59
2018-08-06T20:55:06.393Z,100467.30
2018-08-06T20:57:34.412Z,100468.77
2018-08-06T21:00:02.432Z,100463.30
2018-08-06T21:02:30.556Z,100468.91
2018-08-06T21:04:58.588Z,100478.00
2018-08-06T21:07:26.730Z,100473.87
2018-08-06T21:09:54.836Z,100472.86
2018-08-06T21:12:25.496Z,100480.16
2018-08-06T21:14:53.493Z,100475.27
2018-08-06T21:17:21.560Z,100473.89
2018-08-06T21:19:49.552Z,100475.45
2018-08-06T21:22:17.604Z,100476.44
2018-08-06T21:24:45.616Z,100478.16
2018-08-06T21:27:13.676Z,100475.86
2018-08-06T21:29:41.780Z,100469.09
2018-08-06T21:32:09.812Z,100469.09
2018-08-06T21:34:37.832Z,100471.41
2018-08-06T21:37:05.893Z,100470.06
2018-08-06T21:39:33.974Z,100466.12
2018-08-06T21:42:02.003Z,100462.73
2018-08-06T21:44:30.165Z,100460.20
2018-08-06T21:46:58.145Z,100459.36
2018-08-06T21:49:26.181Z,100464.06
2018-08-06T21:51:54.201Z,100457.55
2018-08-06T21:54:22.224Z,100463.23
2018-08-06T21:56:50.240Z,100459.05
2018-08-06T21:59:18.470Z,100455.97
2018-08-06T22:01:46.520Z,100450.05
2018-08-06T22:04:14.581Z,100454.69
2018-08-06T22:06:42.594Z,100453.22
2018-08-06T22:09:12.677Z,100455.69
2018-08-06T22:11:40.753Z,100454.34
2018-08-06T22:14:09.677Z,100448.20
2018-08-06T22:16:37.950Z,100458.38
2018-08-06T22:19:07.524Z,100451.27
2018-08-06T22:21:35.723Z,100458.81
2018-08-06T22:24:03.765Z,100455.70
2018-08-06T22:26:31.780Z,100452.59
2018-08-06T22:28:59.805Z,100450.07
2018-08-06T22:31:28.009Z,100448.82
2018-08-06T22:33:56.042Z,100452.25
2018-08-06T22:36:23.989Z,100447.51
2018-08-06T22:38:53.296Z,100445.40
2018-08-06T22:41:21.724Z,100447.57
2018-08-06T22:43:49.732Z,100450.80
2018-08-06T22:46:17.843Z,100452.66
2018-08-06T22:48:45.860Z,100446.37
2018-08-06T22:51:13.964Z,100445.67
2018-08-06T22:53:42.024Z,100448.89
2018-08-06T22:56:10.769Z,100447.55
2018-08-06T22:58:39.073Z,100443.73
2018-08-06T23:01:08.280Z,100444.08
2018-08-06T23:03:36.420Z,100441.87
2018-08-06T23:06:04.477Z,100441.21
2018-08-06T23:08:32.541Z,100446.47
2018-08-06T23:11:00.584Z,100438.45
2018-08-06T23:13:28.618Z,100441.59
2018-08-06T23:15:56.620Z,100437.69
2018-08-06T23:18:24.629Z,100438.06
2018-08-06T23:20:52.664Z,100438.83
2018-08-06T23:23:20.696Z,100439.11
2018-08-06T23:25:48.731Z,100436.92
2018-08-06T23:28:16.748Z,100433.50
2018-08-06T23:30:44.728Z,100428.69
2018-08-06T23:33:13.024Z,100438.82
2018-08-06T23:35:41.062Z,100429.75
2018-08-06T23:38:09.065Z,100425.39
2018-08-06T23:40:37.069Z,100424.59
2018-08-06T23:43:05.069Z,100427.11
2018-08-06T23:45:33.064Z,100423.89
2018-08-06T23:48:01.078Z,100426.05
2018-08-06T23:50:29.185Z,100422.03
2018-08-06T23:52:57.215Z,100421.32
2018-08-06T23:55:25.309Z,100421.06
2018-08-06T23:57:53.329Z,100417.45
